createdAt,value
2023-04-06T00:01:48.027Z,4.93
2023-04-06T00:03:49.849Z,4.88
2023-04-06T00:05:51.838Z,4.28
2023-04-06T00:07:55.331Z,3.72
2023-04-06T00:09:57.094Z,5.10
2023-04-06T00:11:58.977Z,5.35
2023-04-06T00:14:01.420Z,4.75
2023-04-06T00:16:03.437Z,5.28
2023-04-06T00:18:05.532Z,4.55
2023-04-06T00:20:08.021Z,3.80
2023-04-06T00:22:09.813Z,5.47
2023-04-06T00:24:11.662Z,3.83
2023-04-06T00:26:13.402Z,3.60
2023-04-06T00:28:15.128Z,3.75
2023-04-06T00:30:16.799Z,3.72
2023-04-06T00:32:18.612Z,3.47
2023-04-06T00:34:21.860Z,3.55
2023-04-06T00:36:23.794Z,2.85
2023-04-06T00:38:25.577Z,3.65
2023-04-06T00:40:29.507Z,3.78
2023-04-06T00:42:31.345Z,4.72
2023-04-06T00:44:33.601Z,8.63
2023-04-06T00:46:35.826Z,9.60
2023-04-06T00:48:37.628Z,8.90
2023-04-06T00:50:39.438Z,8.32
2023-04-06T00:52:41.335Z,9.63
2023-04-06T00:54:43.031Z,12.82
2023-04-06T00:56:45.009Z,12.75
2023-04-06T00:58:46.777Z,13.25
2023-04-06T01:00:48.614Z,16.05
2023-04-06T01:02:50.384Z,16.10
2023-04-06T01:04:53.646Z,15.93
2023-04-06T01:06:55.557Z,16.65
2023-04-06T01:08:57.342Z,14.45
2023-04-06T01:11:01.958Z,15.40
2023-04-06T01:13:03.754Z,11.82
2023-04-06T01:15:09.337Z,10.82
2023-04-06T01:17:11.032Z,9.20
2023-04-06T01:19:13.765Z,8.40
2023-04-06T01:21:18.515Z,7.00
2023-04-06T01:23:20.459Z,6.00
2023-04-06T01:25:22.248Z,6.72
2023-04-06T01:27:24.173Z,6.18
2023-04-06T01:29:26.083Z,6.43
2023-04-06T01:31:28.365Z,8.27
2023-04-06T01:33:30.138Z,7.07
2023-04-06T01:35:31.920Z,6.88
2023-04-06T01:37:33.847Z,6.57
2023-04-06T01:39:35.644Z,7.05
2023-04-06T01:41:37.554Z,6.00
2023-04-06T01:43:39.424Z,5.68
2023-04-06T01:45:41.161Z,6.90
2023-04-06T01:47:45.938Z,5.75
2023-04-06T01:49:47.635Z,7.72
2023-04-06T01:51:49.433Z,6.78
2023-04-06T01:53:51.252Z,6.90
2023-04-06T01:55:52.969Z,6.05
2023-04-06T01:57:54.681Z,5.78
2023-04-06T01:59:56.380Z,4.75
2023-04-06T02:01:58.183Z,4.03
2023-04-06T02:04:02.517Z,4.00
2023-04-06T02:06:05.043Z,3.67
2023-04-06T02:08:06.872Z,3.53
2023-04-06T02:10:13.859Z,3.38
2023-04-06T02:12:15.836Z,4.35
2023-04-06T02:14:17.554Z,3.88
2023-04-06T02:16:19.295Z,3.22
2023-04-06T02:18:21.306Z,4.03
2023-04-06T02:20:23.089Z,3.55
2023-04-06T02:22:24.963Z,3.63
2023-04-06T02:24:26.690Z,3.75
2023-04-06T02:26:28.440Z,3.70
2023-04-06T02:28:30.292Z,4.22
2023-04-06T02:30:33.727Z,4.05
2023-04-06T02:32:35.562Z,4.20
2023-04-06T02:34:37.643Z,3.97
2023-04-06T02:36:39.317Z,3.35
2023-04-06T02:38:41.167Z,3.88
2023-04-06T02:40:42.928Z,3.50
2023-04-06T02:42:44.662Z,3.70
2023-04-06T02:44:46.353Z,4.43
2023-04-06T02:46:48.072Z,3.28
2023-04-06T02:48:49.798Z,2.83
2023-04-06T02:50:51.573Z,3.72
2023-04-06T02:52:54.151Z,3.95
2023-04-06T02:54:55.930Z,3.45
2023-04-06T02:56:57.570Z,3.75
2023-04-06T02:58:59.383Z,2.95
2023-04-06T03:01:01.110Z,3.67
2023-04-06T03:03:02.963Z,3.65
2023-04-06T03:05:05.122Z,3.95
2023-04-06T03:07:06.928Z,3.00
2023-04-06T03:09:09.088Z,3.10
2023-04-06T03:11:11.624Z,3.40
2023-04-06T03:13:13.433Z,2.80
2023-04-06T03:15:15.639Z,3.13
2023-04-06T03:17:17.361Z,2.95
2023-04-06T03:19:19.128Z,3.28
2023-04-06T03:21:21.064Z,3.55
2023-04-06T03:23:22.912Z,2.83
2023-04-06T03:25:24.641Z,3.67
2023-04-06T03:27:26.419Z,3.50
2023-04-06T03:29:28.321Z,3.17
2023-04-06T03:31:30.197Z,3.28
2023-04-06T03:33:31.965Z,2.95
2023-04-06T03:35:33.767Z,3.20
2023-04-06T03:37:35.471Z,3.85
2023-04-06T03:39:37.393Z,4.32
2023-04-06T03:41:39.190Z,4.45
2023-04-06T03:43:41.057Z,4.35
2023-04-06T03:45:43.128Z,3.83
2023-04-06T03:47:44.982Z,4.38
2023-04-06T03:49:47.424Z,4.70
2023-04-06T03:51:49.168Z,4.63
2023-04-06T03:53:51.076Z,4.82
2023-04-06T03:55:52.719Z,4.70
2023-04-06T03:57:54.384Z,4.13
2023-04-06T03:59:56.168Z,4.20
2023-04-06T04:02:01.292Z,4.33
2023-04-06T04:04:03.366Z,4.17
2023-04-06T04:06:05.163Z,4.27
2023-04-06T04:08:07.014Z,4.38
2023-04-06T04:10:09.319Z,5.50
2023-04-06T04:12:11.297Z,5.40
2023-04-06T04:14:13.069Z,5.22
2023-04-06T04:16:14.981Z,4.55
2023-04-06T04:18:17.038Z,4.57
2023-04-06T04:20:18.785Z,4.80
2023-04-06T04:22:20.517Z,5.20
2023-04-06T04:24:22.509Z,3.70
2023-04-06T04:26:24.243Z,4.37
2023-04-06T04:28:26.013Z,4.57
2023-04-06T04:30:30.426Z,4.00
2023-04-06T04:32:32.187Z,3.80
2023-04-06T04:34:34.014Z,4.67
2023-04-06T04:36:35.700Z,4.13
2023-04-06T04:38:37.472Z,4.67
2023-04-06T04:40:39.174Z,4.53
2023-04-06T04:42:41.074Z,5.00
2023-04-06T04:44:42.779Z,4.87
2023-04-06T04:46:44.492Z,6.03
2023-04-06T04:48:46.431Z,8.63
2023-04-06T04:50:48.190Z,8.50
2023-04-06T04:52:49.985Z,8.00
2023-04-06T04:54:51.901Z,8.07
2023-04-06T04:56:53.634Z,8.07
2023-04-06T04:58:55.521Z,7.40
2023-04-06T05:00:57.252Z,6.93
2023-04-06T05:02:59.305Z,6.30
2023-04-06T05:05:01.135Z,5.97
2023-04-06T05:07:08.048Z,7.03
2023-04-06T05:09:09.985Z,7.07
2023-04-06T05:11:11.829Z,5.60
2023-04-06T05:13:13.667Z,4.87
2023-04-06T05:15:15.644Z,5.40
2023-04-06T05:17:38.447Z,5.60
2023-04-06T05:20:12.160Z,5.30
2023-04-06T05:22:27.710Z,5.97
2023-04-06T05:24:45.952Z,4.37
2023-04-06T05:26:48.434Z,5.00
2023-04-06T05:28:50.356Z,6.47
2023-04-06T05:30:52.397Z,5.00
2023-04-06T05:32:54.385Z,5.27
2023-04-06T05:34:57.211Z,4.63
2023-04-06T05:36:59.093Z,4.83
2023-04-06T05:39:01.070Z,4.97
2023-04-06T05:41:02.833Z,3.87
2023-04-06T05:43:04.696Z,4.83
2023-04-06T05:45:11.923Z,4.60
2023-04-06T05:47:13.872Z,5.60
2023-04-06T05:49:15.781Z,5.40
2023-04-06T05:51:17.517Z,4.85
2023-04-06T05:53:19.324Z,6.15
2023-04-06T05:55:21.086Z,4.97
2023-04-06T05:57:29.471Z,6.90
2023-04-06T05:59:43.338Z,5.88
2023-04-06T06:01:53.083Z,6.20
2023-04-06T06:04:09.780Z,5.43
2023-04-06T06:06:19.080Z,6.35
2023-04-06T06:08:33.108Z,5.82
2023-04-06T06:10:49.003Z,4.72
2023-04-06T06:13:03.031Z,6.50
2023-04-06T06:15:19.586Z,5.90
2023-04-06T06:17:28.406Z,5.97
2023-04-06T06:19:36.783Z,6.93
2023-04-06T06:21:39.480Z,6.18
2023-04-06T06:23:43.474Z,6.60
2023-04-06T06:25:45.138Z,6.20
2023-04-06T06:27:47.205Z,6.30
2023-04-06T06:29:48.959Z,7.47
2023-04-06T06:31:52.227Z,6.50
2023-04-06T06:33:55.463Z,6.50
2023-04-06T06:35:57.500Z,6.82
2023-04-06T06:37:59.886Z,6.90
2023-04-06T06:40:01.983Z,7.50
2023-04-06T06:42:03.987Z,6.78
2023-04-06T06:44:06.806Z,5.55
2023-04-06T06:46:08.917Z,5.90
2023-04-06T06:48:11.124Z,6.30
2023-04-06T06:50:13.427Z,6.25
2023-04-06T06:52:15.740Z,5.93
2023-04-06T06:54:17.449Z,6.45
2023-04-06T06:56:19.688Z,6.40
2023-04-06T06:58:21.943Z,8.07
2023-04-06T07:00:24.333Z,7.97
2023-04-06T07:02:26.732Z,7.13
2023-04-06T07:04:28.885Z,6.60
2023-04-06T07:06:30.980Z,6.57
2023-04-06T07:08:33.100Z,7.50
2023-04-06T07:10:36.686Z,7.40
2023-04-06T07:12:38.778Z,6.70
2023-04-06T07:14:43.526Z,8.00
2023-04-06T07:16:46.614Z,6.60
2023-04-06T07:18:48.652Z,7.22
2023-04-06T07:20:51.175Z,5.38
2023-04-06T07:22:53.554Z,6.05
2023-04-06T07:25:00.226Z,6.03
2023-04-06T07:27:02.978Z,5.95
2023-04-06T07:29:05.176Z,6.15
2023-04-06T07:31:07.610Z,6.60
2023-04-06T07:33:10.304Z,6.85
2023-04-06T07:35:16.062Z,7.28
2023-04-06T07:37:18.164Z,6.32
2023-04-06T07:39:20.800Z,6.35
2023-04-06T07:41:22.736Z,6.57
2023-04-06T07:43:26.761Z,6.40
2023-04-06T07:45:29.333Z,6.50
2023-04-06T07:47:33.931Z,7.28
2023-04-06T07:49:36.662Z,7.13
2023-04-06T07:51:40.411Z,6.80
2023-04-06T07:53:42.373Z,6.57
2023-04-06T07:55:44.294Z,6.15
2023-04-06T07:57:46.191Z,7.10
2023-04-06T07:59:51.520Z,6.97
2023-04-06T08:01:53.594Z,8.30
2023-04-06T08:03:57.329Z,7.13
2023-04-06T08:05:59.443Z,7.30
2023-04-06T08:08:04.303Z,7.78
2023-04-06T08:10:06.639Z,7.78
2023-04-06T08:12:11.113Z,7.03
2023-04-06T08:14:13.160Z,7.50
2023-04-06T08:16:15.161Z,8.00
2023-04-06T08:18:17.347Z,7.55
2023-04-06T08:20:20.041Z,7.45
2023-04-06T08:22:23.026Z,7.10
2023-04-06T08:24:25.377Z,6.88
2023-04-06T08:26:41.924Z,6.55
2023-04-06T08:28:46.852Z,6.68
2023-04-06T08:30:49.680Z,7.93
2023-04-06T08:32:51.813Z,6.85
2023-04-06T08:34:58.821Z,6.50
2023-04-06T08:37:07.268Z,5.90
2023-04-06T08:39:10.650Z,6.75
2023-04-06T08:41:17.012Z,6.10
2023-04-06T08:43:21.162Z,6.03
2023-04-06T08:45:24.194Z,6.65
2023-04-06T08:47:29.271Z,5.75
2023-04-06T08:49:31.867Z,5.88
2023-04-06T08:51:47.235Z,6.38
2023-04-06T08:53:50.552Z,5.90
2023-04-06T08:55:53.768Z,5.40
2023-04-06T08:58:01.638Z,5.47
2023-04-06T09:00:05.265Z,5.75
2023-04-06T09:02:07.588Z,5.18
2023-04-06T09:04:21.950Z,5.50
2023-04-06T09:06:23.811Z,5.13
2023-04-06T09:08:53.392Z,5.22
2023-04-06T09:10:56.248Z,5.50
2023-04-06T09:13:06.235Z,5.03
2023-04-06T09:15:19.974Z,5.38
2023-04-06T09:17:33.768Z,5.18
2023-04-06T09:19:46.829Z,5.70
2023-04-06T09:22:02.015Z,5.55
2023-04-06T09:24:04.702Z,5.70
2023-04-06T09:26:14.364Z,5.65
2023-04-06T09:28:16.891Z,6.28
2023-04-06T09:30:19.550Z,6.82
2023-04-06T09:32:21.499Z,6.63
2023-04-06T09:34:26.432Z,5.63
2023-04-06T09:36:35.935Z,5.68
2023-04-06T09:38:52.131Z,6.40
2023-04-06T09:41:01.146Z,5.35
2023-04-06T09:43:05.511Z,5.50
2023-04-06T09:45:07.780Z,6.43
2023-04-06T09:47:09.542Z,5.95
2023-04-06T09:49:12.177Z,5.32
2023-04-06T09:51:16.096Z,5.70
2023-04-06T09:53:20.599Z,5.53
2023-04-06T09:55:33.343Z,5.88
2023-04-06T09:57:54.338Z,5.93
2023-04-06T09:59:56.047Z,6.40
2023-04-06T10:02:01.071Z,6.10
2023-04-06T10:04:25.954Z,5.22
2023-04-06T10:06:28.668Z,5.15
2023-04-06T10:08:32.928Z,5.35
2023-04-06T10:10:34.968Z,5.35
2023-04-06T10:12:38.835Z,5.80
2023-04-06T10:14:42.278Z,5.32
2023-04-06T10:16:44.351Z,5.55
2023-04-06T10:18:53.703Z,5.97
2023-04-06T10:21:07.714Z,5.75
2023-04-06T10:23:24.224Z,6.55
2023-04-06T10:25:29.991Z,4.93
2023-04-06T10:27:32.194Z,5.50
2023-04-06T10:29:49.703Z,5.85
2023-04-06T10:31:51.461Z,5.40
2023-04-06T10:34:01.514Z,5.22
2023-04-06T10:36:12.942Z,5.28
2023-04-06T10:38:15.594Z,4.95
2023-04-06T10:40:22.818Z,5.95
2023-04-06T10:42:38.730Z,4.85
2023-04-06T10:44:44.817Z,5.60
2023-04-06T10:46:57.007Z,4.70
2023-04-06T10:48:59.176Z,4.80
2023-04-06T10:51:00.885Z,5.40
2023-04-06T10:53:03.987Z,5.30
2023-04-06T10:55:06.240Z,5.75
2023-04-06T10:57:07.868Z,4.70
2023-04-06T10:59:09.700Z,4.72
2023-04-06T11:01:12.308Z,5.20
2023-04-06T11:03:14.338Z,4.60
2023-04-06T11:05:16.515Z,5.10
2023-04-06T11:07:24.678Z,3.97
2023-04-06T11:09:30.623Z,4.57
2023-04-06T11:11:32.280Z,4.25
2023-04-06T11:13:46.455Z,4.93
2023-04-06T11:15:50.140Z,4.60
2023-04-06T11:17:52.124Z,4.97
2023-04-06T11:19:54.141Z,3.85
2023-04-06T11:21:56.895Z,4.55
2023-04-06T11:24:10.001Z,4.82
2023-04-06T11:26:15.715Z,4.90
2023-04-06T11:28:17.423Z,4.38
2023-04-06T11:30:19.253Z,4.47
2023-04-06T11:32:22.286Z,4.50
2023-04-06T11:34:24.827Z,4.70
2023-04-06T11:36:28.862Z,4.35
2023-04-06T11:38:31.086Z,5.13
2023-04-06T11:40:34.237Z,4.95
2023-04-06T11:42:36.696Z,4.30
2023-04-06T11:44:46.984Z,5.05
2023-04-06T11:46:55.260Z,4.47
2023-04-06T11:49:01.722Z,4.80
2023-04-06T11:51:06.035Z,5.10
2023-04-06T11:53:07.739Z,5.22
2023-04-06T11:55:17.587Z,5.32
2023-04-06T11:57:21.030Z,5.32
2023-04-06T11:59:24.017Z,5.32
2023-04-06T12:01:26.365Z,5.10
2023-04-06T12:03:28.223Z,5.25
2023-04-06T12:05:29.942Z,5.93
2023-04-06T12:07:31.876Z,5.55
2023-04-06T12:09:35.626Z,5.28
2023-04-06T12:11:37.344Z,5.05
2023-04-06T12:13:39.142Z,5.20
2023-04-06T12:15:40.777Z,6.43
2023-04-06T12:17:42.517Z,5.43
2023-04-06T12:19:44.254Z,6.18
2023-04-06T12:21:45.947Z,5.30
2023-04-06T12:23:50.741Z,6.22
2023-04-06T12:25:52.669Z,5.30
2023-04-06T12:27:54.566Z,5.78
2023-04-06T12:29:56.730Z,5.22
2023-04-06T12:31:58.424Z,5.72
2023-04-06T12:34:00.561Z,6.45
2023-04-06T12:36:02.211Z,5.88
2023-04-06T12:38:04.029Z,5.68
2023-04-06T12:40:06.367Z,5.57
2023-04-06T12:42:08.018Z,5.07
2023-04-06T12:44:09.732Z,5.10
2023-04-06T12:46:11.805Z,6.70
2023-04-06T12:48:13.573Z,5.65
2023-04-06T12:50:15.559Z,6.57
2023-04-06T12:52:17.237Z,5.43
2023-04-06T12:54:18.965Z,6.53
2023-04-06T12:56:22.073Z,6.50
2023-04-06T12:58:24.552Z,5.43
2023-04-06T13:00:26.677Z,5.07
2023-04-06T13:02:28.527Z,5.70
2023-04-06T13:04:30.360Z,6.32
2023-04-06T13:06:32.051Z,5.45
2023-04-06T13:08:33.826Z,5.68
2023-04-06T13:10:35.761Z,5.50
2023-04-06T13:12:37.439Z,6.10
2023-04-06T13:14:40.558Z,6.30
2023-04-06T13:16:42.256Z,5.35
2023-04-06T13:18:44.521Z,4.95
2023-04-06T13:20:48.558Z,6.65
2023-04-06T13:22:50.409Z,6.07
2023-04-06T13:24:52.083Z,5.85
2023-04-06T13:26:53.749Z,4.88
2023-04-06T13:28:57.760Z,5.38
2023-04-06T13:31:01.827Z,5.10
2023-04-06T13:33:03.965Z,6.32
2023-04-06T13:35:07.213Z,6.32
2023-04-06T13:37:09.231Z,5.78
2023-04-06T13:39:11.021Z,6.00
2023-04-06T13:41:23.098Z,5.43
2023-04-06T13:43:27.545Z,5.68
2023-04-06T13:45:29.342Z,4.20
2023-04-06T13:47:32.206Z,5.05
2023-04-06T13:49:36.413Z,5.95
2023-04-06T13:51:41.412Z,4.68
2023-04-06T13:53:43.239Z,5.00
2023-04-06T13:55:45.498Z,4.75
2023-04-06T13:57:47.161Z,5.22
2023-04-06T13:59:50.803Z,4.55
2023-04-06T14:01:52.665Z,4.40
2023-04-06T14:03:54.612Z,3.80
2023-04-06T14:05:58.461Z,3.95
2023-04-06T14:08:00.498Z,2.75
2023-04-06T14:10:03.301Z,2.95
2023-04-06T14:12:05.008Z,2.97
2023-04-06T14:14:06.709Z,3.38
2023-04-06T14:16:08.719Z,3.20
2023-04-06T14:18:10.519Z,4.05
2023-04-06T14:20:15.199Z,3.33
2023-04-06T14:22:18.803Z,3.85
2023-04-06T14:24:21.802Z,3.05
2023-04-06T14:26:23.858Z,4.40
2023-04-06T14:28:25.565Z,4.25
2023-04-06T14:30:28.974Z,3.92
2023-04-06T14:32:30.984Z,4.20
2023-04-06T14:34:32.658Z,4.65
2023-04-06T14:36:39.002Z,4.05
2023-04-06T14:38:42.066Z,4.25
2023-04-06T14:40:43.756Z,4.13
2023-04-06T14:42:46.026Z,4.10
2023-04-06T14:44:49.720Z,4.00
2023-04-06T14:46:51.631Z,3.78
2023-04-06T14:48:56.259Z,3.38
2023-04-06T14:50:58.318Z,3.28
2023-04-06T14:53:01.894Z,2.83
2023-04-06T14:55:04.653Z,2.85
2023-04-06T14:57:06.582Z,3.03
2023-04-06T14:59:08.298Z,3.28
2023-04-06T15:01:09.973Z,2.80
2023-04-06T15:03:11.866Z,3.67
2023-04-06T15:05:13.743Z,2.80
2023-04-06T15:07:15.786Z,3.08
2023-04-06T15:09:20.510Z,3.42
2023-04-06T15:11:22.743Z,3.50
2023-04-06T15:13:24.429Z,3.05
2023-04-06T15:15:26.197Z,3.42
2023-04-06T15:17:28.188Z,3.28
2023-04-06T15:19:29.892Z,3.33
2023-04-06T15:21:32.210Z,3.17
2023-04-06T15:23:35.443Z,3.67
2023-04-06T15:25:37.211Z,3.97
2023-04-06T15:27:38.944Z,3.33
2023-04-06T15:29:41.382Z,3.85
2023-04-06T15:31:43.103Z,3.38
2023-04-06T15:33:45.039Z,3.05
2023-04-06T15:35:47.424Z,3.63
2023-04-06T15:37:49.273Z,4.15
2023-04-06T15:39:51.474Z,2.85
2023-04-06T15:41:53.349Z,2.88
2023-04-06T15:43:55.981Z,3.55
2023-04-06T15:45:57.682Z,2.60
2023-04-06T15:47:59.376Z,3.25
2023-04-06T15:50:01.141Z,3.40
2023-04-06T15:52:03.392Z,2.60
2023-04-06T15:54:05.336Z,2.97
2023-04-06T15:56:09.678Z,2.22
2023-04-06T15:58:11.413Z,2.70
2023-04-06T16:00:13.696Z,3.10
2023-04-06T16:02:16.016Z,2.60
2023-04-06T16:04:17.923Z,3.08
2023-04-06T16:06:19.702Z,3.65
2023-04-06T16:08:22.042Z,3.30
2023-04-06T16:10:23.729Z,3.10
2023-04-06T16:12:27.629Z,3.10
2023-04-06T16:14:30.319Z,3.10
2023-04-06T16:16:32.132Z,3.53
2023-04-06T16:18:36.209Z,3.60
2023-04-06T16:20:38.352Z,4.00
2023-04-06T16:22:40.077Z,4.35
2023-04-06T16:24:42.345Z,4.35
2023-04-06T16:26:44.548Z,5.15
2023-04-06T16:28:47.574Z,4.80
2023-04-06T16:30:49.298Z,4.32
2023-04-06T16:32:51.974Z,4.22
2023-04-06T16:34:53.670Z,4.28
2023-04-06T16:36:56.673Z,4.07
2023-04-06T16:38:59.618Z,3.90
2023-04-06T16:41:02.660Z,4.32
2023-04-06T16:43:05.239Z,3.63
2023-04-06T16:45:07.545Z,3.60
2023-04-06T16:47:09.521Z,4.43
2023-04-06T16:49:11.757Z,4.38
2023-04-06T16:51:13.502Z,3.92
2023-04-06T16:53:15.203Z,4.95
2023-04-06T16:55:16.898Z,4.88
2023-04-06T16:57:23.636Z,5.22
2023-04-06T16:59:25.338Z,3.55
2023-04-06T17:01:28.482Z,3.88
2023-04-06T17:03:30.894Z,4.20
2023-04-06T17:05:34.846Z,5.10
2023-04-06T17:07:36.597Z,4.93
2023-04-06T17:09:38.272Z,4.70
2023-04-06T17:11:46.498Z,4.55
2023-04-06T17:13:49.719Z,3.92
2023-04-06T17:15:51.479Z,4.25
2023-04-06T17:17:54.240Z,4.53
2023-04-06T17:19:56.019Z,4.15
2023-04-06T17:21:57.663Z,4.68
2023-04-06T17:23:59.373Z,3.95
2023-04-06T17:26:06.770Z,4.88
2023-04-06T17:28:09.224Z,4.22
2023-04-06T17:30:12.004Z,4.70
2023-04-06T17:32:13.745Z,5.45
2023-04-06T17:34:15.619Z,5.90
2023-04-06T17:36:17.812Z,5.68
2023-04-06T17:38:21.308Z,4.97
2023-04-06T17:40:23.124Z,5.70
2023-04-06T17:42:24.785Z,4.68
2023-04-06T17:44:26.678Z,4.97
2023-04-06T17:46:28.418Z,4.78
2023-04-06T17:48:30.319Z,5.18
2023-04-06T17:50:32.004Z,5.28
2023-04-06T17:52:33.741Z,5.53
2023-04-06T17:54:36.009Z,5.00
2023-04-06T17:56:37.651Z,5.57
2023-04-06T17:58:39.895Z,6.40
2023-04-06T18:00:41.652Z,5.65
2023-04-06T18:02:43.475Z,6.18
2023-04-06T18:04:45.701Z,6.03
2023-04-06T18:06:47.760Z,6.20
2023-04-06T18:08:49.440Z,5.63
2023-04-06T18:10:51.345Z,6.30
2023-04-06T18:12:53.031Z,5.43
2023-04-06T18:14:54.664Z,5.40
2023-04-06T18:16:56.466Z,6.22
2023-04-06T18:18:58.369Z,7.18
2023-04-06T18:21:04.152Z,6.53
2023-04-06T18:23:05.817Z,6.97
2023-04-06T18:25:07.778Z,6.53
2023-04-06T18:27:10.404Z,7.05
2023-04-06T18:29:12.291Z,5.53
2023-04-06T18:31:14.491Z,7.93
2023-04-06T18:33:16.270Z,6.15
2023-04-06T18:35:17.915Z,6.75
2023-04-06T18:37:19.631Z,6.90
2023-04-06T18:39:21.493Z,6.22
2023-04-06T18:41:23.401Z,6.28
2023-04-06T18:43:25.452Z,5.75
2023-04-06T18:45:27.178Z,5.32
2023-04-06T18:47:28.957Z,5.53
2023-04-06T18:49:31.008Z,5.78
2023-04-06T18:51:32.771Z,5.15
2023-04-06T18:53:35.869Z,5.47
2023-04-06T18:55:39.081Z,5.72
2023-04-06T18:57:41.170Z,5.70
2023-04-06T18:59:43.034Z,4.60
2023-04-06T19:01:51.223Z,5.18
2023-04-06T19:03:54.225Z,5.03
2023-04-06T19:05:56.102Z,5.85
2023-04-06T19:07:57.787Z,5.35
2023-04-06T19:09:59.421Z,4.30
2023-04-06T19:12:01.390Z,5.57
2023-04-06T19:14:03.164Z,5.07
2023-04-06T19:16:10.913Z,6.22
2023-04-06T19:18:12.712Z,5.57
2023-04-06T19:20:14.431Z,8.00
2023-04-06T19:22:16.393Z,6.43
2023-04-06T19:24:18.133Z,5.22
2023-04-06T19:26:22.174Z,5.80
2023-04-06T19:28:23.990Z,5.72
2023-04-06T19:30:26.221Z,5.65
2023-04-06T19:32:28.171Z,5.18
2023-04-06T19:34:29.938Z,5.18
2023-04-06T19:36:32.446Z,5.05
2023-04-06T19:38:36.992Z,4.80
2023-04-06T19:40:38.689Z,6.43
2023-04-06T19:42:40.487Z,4.72
2023-04-06T19:44:42.290Z,4.40
2023-04-06T19:46:47.304Z,5.57
2023-04-06T19:48:49.144Z,5.72
2023-04-06T19:50:54.617Z,4.65
2023-04-06T19:52:56.374Z,4.43
2023-04-06T19:54:58.229Z,4.38
2023-04-06T19:56:59.918Z,4.75
2023-04-06T19:59:01.821Z,5.22
2023-04-06T20:01:04.446Z,4.78
2023-04-06T20:03:07.809Z,4.72
2023-04-06T20:05:09.737Z,6.20
2023-04-06T20:07:11.437Z,4.55
2023-04-06T20:09:15.731Z,4.00
2023-04-06T20:11:17.413Z,4.80
2023-04-06T20:13:21.010Z,3.83
2023-04-06T20:15:23.246Z,4.47
2023-04-06T20:17:25.265Z,5.28
2023-04-06T20:19:27.084Z,4.50
2023-04-06T20:21:28.796Z,4.47
2023-04-06T20:23:30.537Z,5.18
2023-04-06T20:25:32.340Z,4.95
2023-04-06T20:27:34.108Z,5.22
2023-04-06T20:29:35.819Z,4.88
2023-04-06T20:31:37.519Z,4.90
2023-04-06T20:33:40.394Z,4.68
2023-04-06T20:35:42.105Z,4.78
2023-04-06T20:37:43.860Z,4.78
2023-04-06T20:39:45.558Z,3.53
2023-04-06T20:41:47.440Z,4.47
2023-04-06T20:43:49.114Z,4.47
2023-04-06T20:45:52.284Z,5.32
2023-04-06T20:47:54.402Z,5.72
2023-04-06T20:49:56.081Z,5.00
2023-04-06T20:51:58.195Z,5.68
2023-04-06T20:54:01.199Z,4.93
2023-04-06T20:56:03.350Z,6.32
2023-04-06T20:58:05.096Z,4.53
2023-04-06T21:00:08.547Z,4.78
2023-04-06T21:02:10.463Z,4.70
2023-04-06T21:04:12.361Z,4.13
2023-04-06T21:06:14.250Z,5.05
2023-04-06T21:08:16.336Z,4.15
2023-04-06T21:10:18.029Z,4.43
2023-04-06T21:12:19.826Z,3.75
2023-04-06T21:14:22.752Z,3.08
2023-04-06T21:16:24.654Z,3.67
2023-04-06T21:18:26.541Z,4.05
2023-04-06T21:20:28.266Z,3.75
2023-04-06T21:22:30.656Z,3.88
2023-04-06T21:24:32.356Z,3.08
2023-04-06T21:26:35.223Z,3.78
2023-04-06T21:28:36.903Z,3.92
2023-04-06T21:30:38.704Z,3.45
2023-04-06T21:32:40.377Z,4.00
2023-04-06T21:34:45.755Z,4.72
2023-04-06T21:36:47.538Z,3.92
2023-04-06T21:38:49.272Z,3.58
2023-04-06T21:40:55.918Z,3.47
2023-04-06T21:42:58.074Z,3.78
2023-04-06T21:45:00.170Z,4.10
2023-04-06T21:47:02.018Z,3.95
2023-04-06T21:49:03.991Z,4.15
2023-04-06T21:51:05.764Z,3.63
2023-04-06T21:53:07.501Z,4.10
2023-04-06T21:55:09.657Z,3.40
2023-04-06T21:57:13.553Z,3.53
2023-04-06T21:59:15.910Z,3.28
2023-04-06T22:01:17.939Z,3.47
2023-04-06T22:03:19.980Z,3.85
2023-04-06T22:05:21.841Z,4.00
2023-04-06T22:07:23.506Z,3.17
2023-04-06T22:09:25.160Z,3.58
2023-04-06T22:11:26.884Z,3.28
2023-04-06T22:13:29.223Z,3.70
2023-04-06T22:15:31.043Z,4.40
2023-04-06T22:17:32.819Z,5.07
2023-04-06T22:19:34.502Z,4.65
2023-04-06T22:21:36.417Z,5.10
2023-04-06T22:23:42.254Z,4.55
2023-04-06T22:25:44.289Z,5.50
2023-04-06T22:27:46.165Z,5.82
2023-04-06T22:29:47.877Z,3.92
2023-04-06T22:31:49.603Z,3.85
2023-04-06T22:33:51.378Z,4.28
2023-04-06T22:35:53.118Z,4.25
2023-04-06T22:37:55.013Z,4.80
2023-04-06T22:39:56.648Z,3.47
2023-04-06T22:41:58.512Z,4.43
2023-04-06T22:44:00.307Z,3.17
2023-04-06T22:46:02.038Z,3.85
2023-04-06T22:48:03.997Z,4.57
2023-04-06T22:50:06.654Z,4.68
2023-04-06T22:52:08.411Z,7.32
2023-04-06T22:54:11.021Z,6.63
2023-04-06T22:56:12.744Z,6.03
2023-04-06T22:58:14.751Z,5.35
2023-04-06T23:00:16.782Z,5.50
2023-04-06T23:02:18.661Z,4.43
2023-04-06T23:04:21.036Z,4.65
2023-04-06T23:06:22.946Z,4.80
2023-04-06T23:08:24.650Z,5.03
2023-04-06T23:10:26.417Z,4.80
2023-04-06T23:12:28.117Z,5.07
2023-04-06T23:14:29.882Z,4.47
2023-04-06T23:16:31.801Z,4.32
2023-04-06T23:18:34.087Z,4.32
2023-04-06T23:20:35.876Z,4.18
2023-04-06T23:22:37.552Z,4.65
2023-04-06T23:24:39.200Z,4.75
2023-04-06T23:26:41.165Z,3.75
2023-04-06T23:28:42.898Z,5.65
2023-04-06T23:30:44.571Z,5.13
2023-04-06T23:32:46.503Z,4.82
2023-04-06T23:34:48.332Z,4.00
2023-04-06T23:36:50.047Z,5.35
2023-04-06T23:38:51.799Z,4.93
2023-04-06T23:40:53.460Z,5.72
2023-04-06T23:42:55.398Z,5.18
2023-04-06T23:44:57.109Z,4.53
2023-04-06T23:46:58.870Z,5.55
2023-04-06T23:49:00.575Z,3.80
2023-04-06T23:51:02.233Z,3.70
2023-04-06T23:53:04.712Z,4.10
2023-04-06T23:55:07.275Z,4.10
2023-04-06T23:57:08.977Z,4.35
2023-04-06T23:59:10.687Z,4.88
